Atkinson, Maine
Current Conditions -  °F | °C
As of 12:53 PM on Friday 24 Oct 2014 (Local Time) from KBGR Reporting Station
Overcast Overcast  
Wind Chill: 40°   Ceiling: 800
Heat Index: 46°   Visibility: 3mi
Dew Point: 44°   Wind: 14mph
Humidity: 93%   Direction: 360°N
Pressure: 29.67"   Gusts: NA
Location:  45.2129°N, 69.1615°W
Report Text: KBGR 241653Z 36012KT 3SM OVC008 08/07 A2967 RMK AO2 SFC VIS 7 CIG 006V011 SLP045 T00780067
Loading
Personal Weather Stations






























Interactive Weather Map
Tropical Storm Tracking
New forecast layout! Learn more

10-Day Weather Forecast

Advertisements
Track Severe Weather on mobile